Airfield :
LOGIN :

Register | Disclaimer

   EN    FR    IT 

 










Legend :    VFR   Marginal VFR   IFR   Intensive IFR   Very Intensive IFR
Visi :
Ceiling :
>= 8 km
>= 3000ft
5 to 8 km
1000 to 3000 ft
1500m to 5 km
500 to 1000 ft
800 to 1500m
200 to 500 ft
< 800m
< 200 ft
Symbols :   Thunderstorms  Fog  Heavy snow  Heavy precipitations  Wind > 20 kt
SIGMETs :     Misc.  Thunderstorms  Icing  Turbulence  Mountain Waves  Volcanic Ashes






- Airport Elevation : 124 ft
- IATA code : RNS


LFRN - Rennes

CURRENT METAR :
  • 051030Z AUTO 22009KT 180V260 9999 BKN028 23/14 Q1016 NOSIG

EXPIRED METARs :
  • 051000Z AUTO 23009KT 190V280 9999 BKN027 22/14 Q1016 NOSIG
  • 050930Z AUTO 23008KT 170V270 9999 BKN025 21/13 Q1016 NOSIG
  • 050900Z AUTO 24008KT 200V280 9999 BKN022 20/14 Q1016 NOSIG
  • 050830Z AUTO 19006KT 150V250 9999 FEW018 19/13 Q1016 NOSIG
  • 050800Z AUTO 21006KT 160V270 9999 BKN015 19/13 Q1016 TEMPO BKN014

TAF TAF LFRN
Valid from the 05 at 06:00 until the 06 at 06:00 UTC


050500Z 0506/0606 VRB05KT CAVOK
TEMPO 0506/0509 BKN014
BECMG 0508/0510 20010KT
PROB30
TEMPO 0514/0516 22015G25KT
BECMG 0520/0522 VRB05KT
TEMPO 0602/0606 3000 BR
PROB30
TEMPO 0603/0606 0500 FG VV///
ATIS : +33 2 99 67 72 50



MET'MAP, your aeronautical weather chart ! - Copyright ORBIFLY December 2007 - Disclaimer

ORBIFLY MET'MAP TEAM :

Programming & Development : Alexandra Zaïnal
Concept & original design : Baudouin d'Aumeries
Assistance for programming : Marc-Olivier Méhu
Technical & hardware support : Manuel Goepfert

Contact : metmap@orbifly.com




SOURCES & CREDITS :

   NOAA